Time;durP1;ratioP1;P1;durP2;ratioP2;P2;SDS_P1;SDS_P2;PMS_P1;PMS_P2;Temp;Humidity;BMP_temperature;BMP_pressure;BME280_temperature;BME280_humidity;BME280_pressure;Samples;Min_cycle;Max_cycle;Signal;HPM_P1;HPM_P2
2022/11/18 00:02:01;;;;;;;1999.90;999.90;;;10.80;99.90;;;;;;5071384;28;20163;-80
2022/11/18 00:04:26;;;;;;;1999.90;999.90;;;10.70;99.90;;;;;;5071861;28;20039;-71
2022/11/18 00:06:52;;;;;;;1999.90;999.90;;;10.70;99.90;;;;;;5071997;28;20549;-71
2022/11/18 00:09:18;;;;;;;1999.90;999.90;;;10.70;99.90;;;;;;5071502;28;20025;-71
2022/11/18 00:14:28;;;;;;;1999.90;999.90;;;10.60;99.90;;;;;;5072039;28;20409;-81
2022/11/18 00:17:00;;;;;;;1999.90;999.90;;;10.50;99.90;;;;;;5071770;28;20029;-71
2022/11/18 00:19:34;;;;;;;1999.90;999.90;;;10.50;99.90;;;;;;5071755;28;20484;-81
2022/11/18 00:22:00;;;;;;;1999.90;999.90;;;10.50;99.90;;;;;;5071270;28;20730;-72
2022/11/18 00:24:26;;;;;;;1999.90;999.90;;;10.50;99.90;;;;;;5070253;28;20099;-81
2022/11/18 00:26:53;;;;;;;1999.90;999.90;;;10.60;99.90;;;;;;5071800;28;20027;-80
2022/11/18 00:29:18;;;;;;;1999.90;999.90;;;10.70;99.90;;;;;;5071669;28;20031;-82
2022/11/18 00:31:44;;;;;;;1999.90;999.90;;;10.80;99.90;;;;;;5064147;28;20021;-73
2022/11/18 00:34:12;;;;;;;1999.90;999.90;;;11.00;99.90;;;;;;5051391;28;20559;-81
2022/11/18 00:36:38;;;;;;;1999.90;999.90;;;11.00;99.90;;;;;;5051296;28;20071;-73
2022/11/18 00:39:04;;;;;;;1999.90;999.90;;;11.10;99.90;;;;;;5051319;28;20083;-73
2022/11/18 00:42:50;;;;;;;1999.90;999.90;;;11.10;99.90;;;;;;5054995;28;20435;-81
2022/11/18 00:44:15;;;;;;;1999.90;999.90;;;11.10;99.90;;;;;;5067685;28;20036;-73
2022/11/18 00:46:42;;;;;;;1999.90;999.90;;;11.20;99.90;;;;;;5095345;28;20436;-73
2022/11/18 00:49:08;;;;;;;1999.90;999.90;;;11.20;99.90;;;;;;5094984;28;20027;-73
2022/11/18 00:51:34;;;;;;;1999.90;999.90;;;11.20;99.90;;;;;;5093767;28;20024;-79
2022/11/18 00:53:59;;;;;;;1999.90;999.90;;;11.20;99.90;;;;;;5094874;28;20106;-81
2022/11/18 00:56:25;;;;;;;1999.90;999.90;;;11.20;99.90;;;;;;5088170;28;20020;-73
2022/11/18 00:58:51;;;;;;;1999.90;999.90;;;11.20;99.90;;;;;;5074942;28;20150;-81
2022/11/18 01:01:16;;;;;;;1999.90;999.90;;;11.20;99.90;;;;;;5073992;28;20558;-73
2022/11/18 01:03:42;;;;;;;1999.90;999.90;;;11.20;99.90;;;;;;5074448;28;20119;-73
2022/11/18 01:06:08;;;;;;;1999.90;999.90;;;11.30;99.90;;;;;;5074374;28;20055;-81
2022/11/18 01:08:33;;;;;;;1999.90;999.90;;;11.20;99.90;;;;;;5074221;28;20390;-73
2022/11/18 01:13:18;;;;;;;1999.90;999.90;;;11.20;99.90;;;;;;5073369;28;20021;-81
2022/11/18 01:13:47;;;;;;;1999.90;999.90;;;11.30;99.90;;;;;;5074070;28;20017;-73
2022/11/18 01:16:21;;;;;;;1999.90;999.90;;;11.20;99.90;;;;;;5073535;28;20056;-73
2022/11/18 01:18:47;;;;;;;1999.90;999.90;;;11.10;99.90;;;;;;5074544;28;20032;-81
2022/11/18 01:21:13;;;;;;;1999.90;999.90;;;11.00;99.90;;;;;;5074362;28;20036;-81
2022/11/18 01:23:38;;;;;;;1999.90;999.90;;;11.00;99.90;;;;;;5072876;28;20025;-82
2022/11/18 01:26:07;;;;;;;1999.90;999.90;;;10.90;99.90;;;;;;5073855;28;20107;-73
2022/11/18 01:28:32;;;;;;;1999.90;999.90;;;11.00;99.90;;;;;;5074126;28;20033;-73
2022/11/18 01:31:07;;;;;;;1999.90;999.90;;;11.00;99.90;;;;;;5074378;28;20433;-73
2022/11/18 01:33:33;;;;;;;1999.90;999.90;;;11.00;99.90;;;;;;5074070;28;20115;-81
2022/11/18 01:35:59;;;;;;;1999.90;999.90;;;11.10;99.90;;;;;;5073868;28;20551;-74
2022/11/18 01:38:26;;;;;;;1999.90;999.90;;;11.10;99.90;;;;;;5073407;28;20032;-73
2022/11/18 01:40:52;;;;;;;1999.90;999.90;;;11.20;99.90;;;;;;5073727;28;20028;-82
2022/11/18 01:43:20;;;;;;;1999.90;999.90;;;11.10;99.90;;;;;;5074064;28;20036;-82
2022/11/18 01:45:50;;;;;;;1999.90;999.90;;;11.20;99.90;;;;;;5092773;28;20551;-82
2022/11/18 01:48:27;;;;;;;1999.90;999.90;;;11.20;99.90;;;;;;5092638;28;20024;-73
2022/11/18 01:51:15;;;;;;;1999.90;999.90;;;11.20;99.90;;;;;;5093368;28;20048;-73
2022/11/18 01:53:48;;;;;;;1999.90;999.90;;;11.30;99.90;;;;;;5093690;28;20020;-73
2022/11/18 01:56:19;;;;;;;1999.90;999.90;;;11.30;99.90;;;;;;5083693;28;20024;-83
2022/11/18 01:58:57;;;;;;;1999.90;999.90;;;11.40;99.90;;;;;;5053575;28;20087;-73
2022/11/18 02:01:23;;;;;;;1999.90;999.90;;;11.40;99.90;;;;;;5059460;28;20103;-82
2022/11/18 02:03:50;;;;;;;1999.90;999.90;;;11.30;99.90;;;;;;5071716;28;20148;-74
2022/11/18 02:06:17;;;;;;;1999.90;999.90;;;11.30;99.90;;;;;;5071977;28;20119;-74
2022/11/18 02:08:43;;;;;;;1999.90;999.90;;;11.20;99.90;;;;;;5073320;28;20035;-81
2022/11/18 02:13:58;;;;;;;1999.90;999.90;;;11.20;99.90;;;;;;5073003;28;20082;-82
2022/11/18 02:16:36;;;;;;;1999.90;999.90;;;11.20;99.90;;;;;;5073040;28;20039;-73
2022/11/18 02:19:27;;;;;;;1999.90;999.90;;;11.10;99.90;;;;;;5073191;28;20043;-73
2022/11/18 02:22:14;;;;;;;1999.90;999.90;;;11.10;99.90;;;;;;5072763;28;20024;-73
2022/11/18 02:24:41;;;;;;;1999.90;999.90;;;11.20;99.90;;;;;;5071691;28;20484;-82
2022/11/18 02:27:25;;;;;;;1999.90;999.90;;;11.10;99.90;;;;;;5073161;28;20029;-82
2022/11/18 02:30:17;;;;;;;1999.90;999.90;;;11.10;99.90;;;;;;5072888;28;20438;-73
2022/11/18 02:33:11;;;;;;;1999.90;999.90;;;11.10;99.90;;;;;;5069463;28;20494;-73
2022/11/18 02:35:45;;;;;;;1999.90;999.90;;;11.10;99.90;;;;;;5070161;28;20033;-73
2022/11/18 02:38:21;;;;;;;1999.90;999.90;;;11.10;99.90;;;;;;5072146;28;20163;-82
2022/11/18 02:40:59;;;;;;;1999.90;999.90;;;11.10;99.90;;;;;;5072613;28;20032;-73
2022/11/18 02:43:32;;;;;;;1999.90;999.90;;;11.20;99.90;;;;;;5072828;28;20028;-73
2022/11/18 02:46:04;;;;;;;1999.90;999.90;;;11.20;99.90;;;;;;5052247;28;20495;-73
2022/11/18 02:48:34;;;;;;;1999.90;999.90;;;11.20;99.90;;;;;;5052298;28;20025;-73
2022/11/18 02:51:03;;;;;;;1999.90;999.90;;;11.10;99.90;;;;;;5052770;28;20013;-82
2022/11/18 02:53:31;;;;;;;1999.90;999.90;;;11.10;99.90;;;;;;5052397;28;20403;-83
2022/11/18 02:55:59;;;;;;;1999.90;999.90;;;11.00;99.90;;;;;;5052289;28;20391;-81
2022/11/18 02:58:25;;;;;;;1999.90;999.90;;;10.90;99.90;;;;;;5052261;28;20029;-72
2022/11/18 03:01:01;;;;;;;1999.90;999.90;;;10.90;99.90;;;;;;5053998;28;20078;-82
2022/11/18 03:03:32;;;;;;;1999.90;999.90;;;10.90;99.90;;;;;;5071671;28;20090;-82
2022/11/18 03:06:06;;;;;;;1999.90;999.90;;;10.90;99.90;;;;;;5072260;28;20033;-82
2022/11/18 03:09:13;;;;;;;1999.90;999.90;;;10.90;99.90;;;;;;5072071;28;20029;-73
2022/11/18 03:11:47;;;;;;;1999.90;999.90;;;10.90;99.90;;;;;;5072256;28;20017;-73
2022/11/18 03:14:35;;;;;;;1999.90;999.90;;;10.90;99.90;;;;;;5070709;28;20488;-73
2022/11/18 03:17:29;;;;;;;1999.90;999.90;;;10.90;99.90;;;;;;5072387;28;20020;-82
2022/11/18 03:20:11;;;;;;;1999.90;999.90;;;10.90;99.90;;;;;;5072624;28;20020;-82
2022/11/18 03:22:43;;;;;;;1999.90;999.90;;;10.80;99.90;;;;;;5071957;28;20104;-73
2022/11/18 03:25:30;;;;;;;1999.90;999.90;;;10.80;99.90;;;;;;5071316;28;20398;-73
2022/11/18 03:28:10;;;;;;;1999.90;999.90;;;10.80;99.90;;;;;;5072247;28;20032;-73
2022/11/18 03:30:41;;;;;;;1999.90;999.90;;;10.80;99.90;;;;;;5072004;28;20032;-82
2022/11/18 03:33:16;;;;;;;1999.90;999.90;;;10.70;99.90;;;;;;5071965;28;20483;-73
2022/11/18 03:35:46;;;;;;;1999.90;999.90;;;10.60;99.90;;;;;;5071963;28;20378;-73
2022/11/18 03:38:17;;;;;;;1999.90;999.90;;;10.70;99.90;;;;;;5071678;28;20038;-73
2022/11/18 03:40:52;;;;;;;1999.90;999.90;;;10.70;99.90;;;;;;5071901;28;20056;-73
2022/11/18 03:43:28;;;;;;;1999.90;999.90;;;10.60;99.90;;;;;;5071970;28;20123;-73
2022/11/18 03:46:05;;;;;;;1999.90;999.90;;;10.60;99.90;;;;;;5051753;28;20036;-81
2022/11/18 03:48:37;;;;;;;1999.90;999.90;;;10.70;99.90;;;;;;5051767;28;20017;-82
2022/11/18 03:51:13;;;;;;;1999.90;999.90;;;10.70;99.90;;;;;;5052208;28;20495;-73
2022/11/18 03:53:44;;;;;;;1999.90;999.90;;;10.80;99.90;;;;;;5051662;28;20029;-82
2022/11/18 03:56:14;;;;;;;1999.90;999.90;;;10.80;99.90;;;;;;5055820;28;20395;-74
2022/11/18 03:58:55;;;;;;;1999.90;999.90;;;10.80;99.90;;;;;;5071928;28;20021;-81
2022/11/18 04:01:38;;;;;;;1999.90;999.90;;;10.80;99.90;;;;;;5070190;28;20395;-73
2022/11/18 04:04:04;;;;;;;1999.90;999.90;;;10.90;99.90;;;;;;5071442;28;20436;-73
2022/11/18 04:06:40;;;;;;;1999.90;999.90;;;10.90;99.90;;;;;;5071735;28;20025;-73
2022/11/18 04:09:12;;;;;;;1999.90;999.90;;;10.90;99.90;;;;;;5071706;28;20032;-73
2022/11/18 04:12:02;;;;;;;1999.90;999.90;;;10.90;99.90;;;;;;5071714;28;20487;-73
2022/11/18 04:14:29;;;;;;;1999.90;999.90;;;11.00;99.90;;;;;;5073640;28;20064;-82
2022/11/18 04:16:55;;;;;;;1999.90;999.90;;;11.00;99.90;;;;;;5074774;28;20032;-74
2022/11/18 04:19:21;;;;;;;1999.90;999.90;;;11.00;99.90;;;;;;5075460;28;20098;-73
2022/11/18 04:21:49;;;;;;;1999.90;999.90;;;11.10;99.90;;;;;;5073651;28;20079;-73
2022/11/18 04:24:16;;;;;;;1999.90;999.90;;;11.10;99.90;;;;;;5075018;28;20033;-73
2022/11/18 04:26:41;;;;;;;1999.90;999.90;;;11.10;99.90;;;;;;5074593;28;20436;-82
2022/11/18 04:29:07;;;;;;;1999.90;999.90;;;11.10;99.90;;;;;;5073976;28;20119;-73
2022/11/18 04:31:33;;;;;;;1999.90;999.90;;;11.10;99.90;;;;;;5075301;28;20027;-73
2022/11/18 04:33:58;;;;;;;1999.90;999.90;;;11.10;99.90;;;;;;5074885;28;20091;-73
2022/11/18 04:36:24;;;;;;;1999.90;999.90;;;11.00;99.90;;;;;;5074952;28;20467;-73
2022/11/18 04:38:49;;;;;;;1999.90;999.90;;;11.00;99.90;;;;;;5074980;28;20031;-82
2022/11/18 04:41:15;;;;;;;1999.90;999.90;;;11.10;99.90;;;;;;5075081;28;20031;-81
2022/11/18 04:43:41;;;;;;;1999.90;999.90;;;11.00;99.90;;;;;;5076488;28;20368;-73
2022/11/18 04:46:07;;;;;;;1999.90;999.90;;;11.00;99.90;;;;;;5095172;28;20078;-73
2022/11/18 04:48:33;;;;;;;1999.90;999.90;;;11.00;99.90;;;;;;5095094;28;20489;-73
2022/11/18 04:51:05;;;;;;;1999.90;999.90;;;11.00;99.90;;;;;;5095489;28;20028;-72
2022/11/18 04:53:31;;;;;;;1999.90;999.90;;;11.10;99.90;;;;;;5095133;28;20077;-81
2022/11/18 04:56:04;;;;;;;1999.90;999.90;;;11.10;99.90;;;;;;5095067;28;20032;-82
2022/11/18 04:58:31;;;;;;;1999.90;999.90;;;11.20;99.90;;;;;;5075067;28;20052;-73
2022/11/18 05:00:56;;;;;;;1999.90;999.90;;;11.30;99.90;;;;;;5074739;28;20395;-81
2022/11/18 05:03:22;;;;;;;1999.90;999.90;;;11.40;99.90;;;;;;5074732;28;20071;-83
2022/11/18 05:05:47;;;;;;;1999.90;999.90;;;11.30;99.90;;;;;;5074481;28;20071;-73
2022/11/18 05:08:13;;;;;;;1999.90;999.90;;;11.20;99.90;;;;;;5074303;28;20529;-73
2022/11/18 05:10:38;;;;;;;1999.90;999.90;;;11.10;99.90;;;;;;5074142;28;20070;-84
2022/11/18 05:13:04;;;;;;;1999.90;999.90;;;11.00;99.90;;;;;;5074233;28;20387;-83
2022/11/18 05:15:29;;;;;;;1999.90;999.90;;;11.00;99.90;;;;;;5074518;28;20056;-83
2022/11/18 05:17:55;;;;;;;1999.90;999.90;;;10.90;99.90;;;;;;5072915;28;20445;-82
2022/11/18 05:20:21;;;;;;;1999.90;999.90;;;10.90;99.90;;;;;;5074231;28;20029;-83
2022/11/18 05:22:46;;;;;;;1999.90;999.90;;;11.00;99.90;;;;;;5073945;28;20032;-73
2022/11/18 05:25:12;;;;;;;1999.90;999.90;;;11.00;99.90;;;;;;5073298;28;20112;-73
2022/11/18 05:27:37;;;;;;;1999.90;999.90;;;11.00;99.90;;;;;;5073264;28;20027;-72
2022/11/18 05:30:04;;;;;;;1999.90;999.90;;;10.90;99.90;;;;;;5074348;28;20029;-72
2022/11/18 05:32:30;;;;;;;1999.90;999.90;;;10.80;99.90;;;;;;5074056;28;20031;-71
2022/11/18 05:34:55;;;;;;;1999.90;999.90;;;10.70;99.90;;;;;;5074000;28;20028;-71
2022/11/18 05:37:21;;;;;;;1999.90;999.90;;;10.70;99.90;;;;;;5073483;28;20491;-72
2022/11/18 05:39:47;;;;;;;1999.90;999.90;;;10.60;99.90;;;;;;5073535;28;20058;-81
2022/11/18 05:44:57;;;;;;;1999.90;999.90;;;10.40;99.90;;;;;;5086117;28;20098;-80
2022/11/18 05:53:48;;;;;;;1999.90;999.90;;;10.00;99.90;;;;;;5093739;28;20525;-72
2022/11/18 05:56:29;;;;;;;1999.90;999.90;;;10.00;99.90;;;;;;5092718;28;20032;-73
2022/11/18 06:02:05;;;;;;;1999.90;999.90;;;9.80;99.90;;;;;;5064112;28;20090;-72
2022/11/18 06:08:11;;;;;;;1999.90;999.90;;;9.70;99.90;;;;;;5073348;28;20047;-80
2022/11/18 06:14:02;;;;;;;1999.90;999.90;;;9.50;99.90;;;;;;5073448;28;20075;-81
2022/11/18 06:28:45;;;;;;;1999.90;999.90;;;9.60;99.90;;;;;;5072275;28;20032;-72
2022/11/18 06:31:11;;;;;;;1999.90;999.90;;;9.50;99.90;;;;;;5073228;28;20074;-72
2022/11/18 06:33:55;;;;;;;1999.90;999.90;;;9.40;99.90;;;;;;5072931;28;20024;-80
2022/11/18 06:36:39;;;;;;;1999.90;999.90;;;9.30;99.90;;;;;;5061823;28;20071;-80
2022/11/18 06:39:25;;;;;;;1999.90;999.90;;;9.20;99.90;;;;;;5058945;28;20571;-80
2022/11/18 06:48:34;;;;;;;1999.90;999.90;;;9.10;99.90;;;;;;5072330;28;20094;-80
2022/11/18 06:51:18;;;;;;;1999.90;999.90;;;9.00;99.90;;;;;;5072382;28;20043;-80
2022/11/18 06:54:02;;;;;;;1999.90;999.90;;;9.00;99.90;;;;;;5071805;28;20117;-72
2022/11/18 06:57:05;;;;;;;1999.90;999.90;;;9.00;99.90;;;;;;5086443;28;20035;-72
2022/11/18 07:02:53;;;;;;;1999.90;999.90;;;9.00;99.90;;;;;;5071794;28;20070;-72
2022/11/18 07:05:37;;;;;;;1999.90;999.90;;;9.10;99.90;;;;;;5072075;28;20024;-72
2022/11/18 07:08:41;;;;;;;1999.90;999.90;;;9.10;99.90;;;;;;5070614;28;20044;-73
2022/11/18 07:15:06;;;;;;;1999.90;999.90;;;9.20;99.90;;;;;;5071674;28;20399;-73
2022/11/18 07:20:54;;;;;;;1999.90;999.90;;;9.20;99.90;;;;;;5069692;28;20070;-72
2022/11/18 07:23:38;;;;;;;1999.90;999.90;;;9.20;99.90;;;;;;5071519;28;20020;-80
2022/11/18 07:31:51;;;;;;;1999.90;999.90;;;9.10;99.90;;;;;;5091465;28;20081;-73
2022/11/18 07:37:58;;;;;;;1999.90;999.90;;;9.00;99.90;;;;;;5063542;28;20039;-80
2022/11/18 07:44:05;;;;;;;1999.90;999.90;;;9.00;99.90;;;;;;5061246;28;20039;-80
2022/11/18 07:46:49;;;;;;;1999.90;999.90;;;9.00;99.90;;;;;;5063912;28;20495;-73
2022/11/18 07:49:34;;;;;;;1999.90;999.90;;;9.00;99.90;;;;;;5072710;28;20236;-80
2022/11/18 07:51:59;;;;;;;1999.90;999.90;;;9.00;99.90;;;;;;5074932;28;20033;-80
2022/11/18 07:54:25;;;;;;;1999.90;999.90;;;9.00;99.90;;;;;;5072591;28;20032;-72
2022/11/18 07:56:50;;;;;;;1999.90;999.90;;;9.00;99.90;;;;;;5075330;28;20768;-73
2022/11/18 07:59:16;;;;;;;1999.90;999.90;;;9.30;99.90;;;;;;5075187;28;20027;-73
2022/11/18 08:01:42;;;;;;;1999.90;999.90;;;9.60;99.90;;;;;;5082125;28;20082;-73
2022/11/18 08:04:10;;;;;;;1999.90;999.90;;;9.70;99.90;;;;;;5073699;28;20082;-74
2022/11/18 08:06:36;;;;;;;1999.90;999.90;;;9.70;99.90;;;;;;5074706;28;20052;-79
2022/11/18 08:09:03;;;;;;;1999.90;999.90;;;9.70;99.90;;;;;;5074518;28;20032;-73
2022/11/18 08:11:28;;;;;;;1999.90;999.90;;;9.90;99.90;;;;;;5074864;28;20108;-73
2022/11/18 08:13:54;;;;;;;1999.90;999.90;;;10.30;99.90;;;;;;5074478;28;20100;-80
2022/11/18 08:16:22;;;;;;;1999.90;999.90;;;10.50;99.90;;;;;;5070914;28;20056;-73
2022/11/18 08:18:48;;;;;;;1999.90;999.90;;;10.60;99.90;;;;;;5072229;28;20032;-81
2022/11/18 08:21:16;;;;;;;1999.90;999.90;;;10.50;99.90;;;;;;5081192;28;20152;-72
2022/11/18 08:23:42;;;;;;;1999.90;999.90;;;10.30;99.90;;;;;;5068374;28;20476;-74
2022/11/18 08:26:10;;;;;;;1999.90;999.90;;;10.20;99.90;;;;;;5078959;28;20032;-73
2022/11/18 08:28:36;;;;;;;1999.90;999.90;;;10.10;99.90;;;;;;5074038;28;20032;-75
2022/11/18 08:31:10;;;;;;;1999.90;999.90;;;10.00;99.90;;;;;;5084416;28;20510;-74
2022/11/18 08:33:36;;;;;;;1999.90;999.90;;;10.00;99.90;;;;;;5092987;28;20028;-72
2022/11/18 08:36:11;;;;;;;1999.90;999.90;;;10.10;99.90;;;;;;5070856;28;20399;-73
2022/11/18 08:38:37;;;;;;;1999.90;999.90;;;10.10;99.90;;;;;;5059341;28;20040;-73
2022/11/18 08:41:04;;;;;;;1999.90;999.90;;;10.20;99.90;;;;;;5080214;28;20410;-81
2022/11/18 08:43:29;;;;;;;1999.90;999.90;;;10.30;99.90;;;;;;5087632;28;20062;-73
2022/11/18 08:45:55;;;;;;;1999.90;999.90;;;10.40;99.90;;;;;;5085441;28;20483;-82
2022/11/18 08:48:20;;;;;;;1999.90;999.90;;;10.50;99.90;;;;;;5073987;28;20484;-73
2022/11/18 08:50:46;;;;;;;1999.90;999.90;;;10.60;99.90;;;;;;5080268;28;20039;-71
2022/11/18 08:53:13;;;;;;;1999.90;999.90;;;10.70;99.90;;;;;;5091570;28;20035;-72
2022/11/18 08:55:39;;;;;;;1999.90;999.90;;;10.80;99.90;;;;;;5079335;28;20059;-81
2022/11/18 08:58:04;;;;;;;1999.90;999.90;;;10.90;99.90;;;;;;5077714;28;20063;-73
2022/11/18 09:00:30;;;;;;;1999.90;999.90;;;11.20;99.90;;;;;;5072189;28;20479;-81
2022/11/18 09:02:56;;;;;;;1999.90;999.90;;;11.40;99.90;;;;;;5072990;28;20061;-74
2022/11/18 09:05:21;;;;;;;1999.90;999.90;;;11.70;99.90;;;;;;5075848;28;20716;-73
2022/11/18 09:07:47;;;;;;;1999.90;999.90;;;11.80;99.90;;;;;;5093337;28;20032;-80
2022/11/18 09:10:13;;;;;;;1999.90;999.90;;;11.60;99.90;;;;;;5076598;28;20058;-81
2022/11/18 09:12:38;;;;;;;1999.90;999.90;;;11.50;99.90;;;;;;5073286;28;20032;-80
2022/11/18 09:15:04;;;;;;;1999.90;999.90;;;11.40;99.90;;;;;;5073492;28;20071;-74
2022/11/18 09:17:30;;;;;;;1999.90;999.90;;;11.30;99.90;;;;;;5073412;28;20535;-74
2022/11/18 09:19:55;;;;;;;1999.90;999.90;;;11.20;99.90;;;;;;5071493;28;20107;-80
2022/11/18 09:22:21;;;;;;;1999.90;999.90;;;11.20;99.90;;;;;;5088742;28;20085;-80
2022/11/18 09:24:47;;;;;;;1999.90;999.90;;;11.30;99.90;;;;;;5093185;28;20111;-80
2022/11/18 09:27:12;;;;;;;1999.90;999.90;;;11.30;99.90;;;;;;5078365;28;20107;-74
2022/11/18 09:29:38;;;;;;;1999.90;999.90;;;11.40;99.90;;;;;;5072735;28;20021;-74
2022/11/18 09:32:04;;;;;;;1999.90;999.90;;;11.50;99.90;;;;;;5072815;28;20046;-80
2022/11/18 09:34:29;;;;;;;1999.90;999.90;;;11.60;99.90;;;;;;5070198;28;20837;-80
2022/11/18 09:36:55;;;;;;;1999.90;999.90;;;11.50;99.90;;;;;;5069522;28;20035;-80
2022/11/18 09:39:23;;;;;;;1999.90;999.90;;;11.60;99.90;;;;;;5070767;28;20013;-80
2022/11/18 09:42:33;;;;;;;1999.90;999.90;;;11.70;99.90;;;;;;5081236;28;20020;-74
2022/11/18 09:45:20;;;;;;;1999.90;999.90;;;11.80;99.90;;;;;;5066302;28;20040;-74
2022/11/18 09:47:45;;;;;;;1999.90;999.90;;;11.80;99.90;;;;;;5071569;28;20040;-80
2022/11/18 09:50:18;;;;;;;1999.90;999.90;;;11.90;99.90;;;;;;5072511;28;20514;-74
2022/11/18 09:52:49;;;;;;;1999.90;999.90;;;12.00;99.90;;;;;;5090001;28;20098;-74
2022/11/18 09:55:18;;;;;;;1999.90;999.90;;;12.10;99.90;;;;;;5078758;28;20021;-74
2022/11/18 09:57:53;;;;;;;1999.90;999.90;;;12.10;99.90;;;;;;5072243;28;20529;-74
2022/11/18 10:00:29;;;;;;;1999.90;999.90;;;12.10;99.90;;;;;;5070137;28;20135;-80
2022/11/18 10:03:05;;;;;;;1999.90;999.90;;;12.20;99.90;;;;;;5073160;28;20450;-80
2022/11/18 10:05:38;;;;;;;1999.90;999.90;;;12.30;99.90;;;;;;5071746;28;20024;-74
2022/11/18 10:08:25;;;;;;;1999.90;999.90;;;12.50;99.90;;;;;;5091524;28;20032;-75
2022/11/18 10:11:09;;;;;;;1999.90;999.90;;;12.50;99.90;;;;;;5062979;28;20100;-74
2022/11/18 10:13:37;;;;;;;;;;;12.70;99.90;;;;;;5072888;28;20020;-79
2022/11/18 10:16:30;;;;;;;1999.90;999.90;;;13.10;99.90;;;;;;5071147;28;20019;-78
2022/11/18 10:19:04;;;;;;;1999.90;999.90;;;13.30;99.90;;;;;;5072078;28;20033;-79
2022/11/18 10:21:36;;;;;;;1999.90;999.90;;;13.20;99.90;;;;;;5077861;28;20040;-75
2022/11/18 10:24:18;;;;;;;1999.90;999.90;;;13.30;99.90;;;;;;5070525;28;20085;-75
2022/11/18 10:26:44;;;;;;;1999.90;999.90;;;13.30;99.90;;;;;;5070304;28;20036;-75
2022/11/18 10:29:09;;;;;;;1999.90;999.90;;;13.30;99.90;;;;;;5070829;28;20060;-79
2022/11/18 10:31:51;;;;;;;1999.90;999.90;;;13.30;99.90;;;;;;5069905;28;20086;-73
2022/11/18 10:34:17;;;;;;;1999.90;999.90;;;13.30;99.90;;;;;;5070059;28;20067;-73
2022/11/18 10:36:50;;;;;;;1999.90;999.90;;;13.30;99.90;;;;;;5062094;28;20021;-74
2022/11/18 10:39:16;;;;;;;1999.90;999.90;;;13.30;99.90;;;;;;5071171;28;20531;-80
2022/11/18 10:41:55;;;;;;;1999.90;999.90;;;13.20;99.90;;;;;;5070160;28;20120;-77
2022/11/18 10:44:26;;;;;;;1999.90;999.90;;;13.40;99.90;;;;;;5076921;28;20076;-79
2022/11/18 10:46:52;;;;;;;1999.90;999.90;;;13.40;99.90;;;;;;5077814;28;20032;-74
2022/11/18 10:49:18;;;;;;;1999.90;999.90;;;13.30;99.90;;;;;;5057223;28;20025;-75
2022/11/18 10:52:06;;;;;;;1999.90;999.90;;;13.40;99.90;;;;;;5068229;28;20032;-79
2022/11/18 10:54:32;;;;;;;1999.90;999.90;;;13.40;99.90;;;;;;5072365;28;20112;-80
2022/11/18 10:57:13;;;;;;;1999.90;999.90;;;13.40;99.90;;;;;;5079940;28;20638;-77
2022/11/18 10:59:46;;;;;;;1999.90;999.90;;;13.50;99.90;;;;;;5078092;28;20104;-75
2022/11/18 11:02:32;;;;;;;1999.90;999.90;;;13.70;99.90;;;;;;5070712;28;20500;-75
2022/11/18 11:05:01;;;;;;;1999.90;999.90;;;13.70;99.90;;;;;;5060647;28;20241;-78
2022/11/18 11:07:35;;;;;;;1999.90;999.90;;;13.80;99.90;;;;;;5069037;28;20020;-75
2022/11/18 11:10:06;;;;;;;1999.90;999.90;;;13.90;99.90;;;;;;5070895;28;20394;-76
2022/11/18 11:12:35;;;;;;;1999.90;999.90;;;13.90;99.90;;;;;;5080712;28;20028;-78
2022/11/18 11:15:09;;;;;;;1999.90;999.90;;;14.00;99.90;;;;;;5071195;28;20032;-75
2022/11/18 11:17:46;;;;;;;1999.90;999.90;;;14.20;99.90;;;;;;5070896;28;20032;-75
2022/11/18 11:20:21;;;;;;;1999.90;999.90;;;14.20;99.90;;;;;;5070028;28;20036;-78
2022/11/18 11:22:47;;;;;;;1999.90;999.90;;;14.30;99.90;;;;;;5070453;28;20024;-78
2022/11/18 11:25:39;;;;;;;1999.90;999.90;;;14.20;99.90;;;;;;5069640;28;20024;-75
2022/11/18 11:28:26;;;;;;;1999.90;999.90;;;14.00;99.90;;;;;;5066779;28;20041;-75
2022/11/18 11:31:20;;;;;;;1999.90;999.90;;;14.10;99.90;;;;;;5071005;28;20031;-78
2022/11/18 11:34:14;;;;;;;1999.90;999.90;;;14.10;99.90;;;;;;5071179;28;20058;-75
2022/11/18 11:37:11;;;;;;;1999.90;999.90;;;14.20;99.90;;;;;;5070982;28;20377;-75
2022/11/18 11:39:43;;;;;;;1999.90;999.90;;;14.00;99.90;;;;;;5070936;28;20025;-75
2022/11/18 11:42:33;;;;;;;1999.90;999.90;;;13.80;99.90;;;;;;5079654;28;20067;-75
2022/11/18 11:45:25;;;;;;;1999.90;999.90;;;13.80;99.90;;;;;;5078717;28;20029;-75
2022/11/18 11:48:03;;;;;;;1999.90;999.90;;;13.70;99.90;;;;;;5066722;28;20040;-78
2022/11/18 11:50:53;;;;;;;1999.90;999.90;;;13.60;99.90;;;;;;5071108;28;20039;-78
2022/11/18 11:53:37;;;;;;;1999.90;999.90;;;13.80;99.90;;;;;;5071180;28;20032;-75
2022/11/18 11:56:27;;;;;;;1999.90;999.90;;;14.20;99.90;;;;;;5068975;28;20153;-75
2022/11/18 11:59:01;;;;;;;1999.90;999.90;;;14.50;99.90;;;;;;5050345;28;20033;-78
2022/11/18 12:01:39;;;;;;;1999.90;999.90;;;14.80;99.90;;;;;;5057332;28;20111;-78
2022/11/18 12:04:26;;;;;;;1999.90;999.90;;;15.20;99.90;;;;;;5068402;28;20096;-75
2022/11/18 12:06:53;;;;;;;1999.90;999.90;;;15.10;99.90;;;;;;5070858;28;20036;-75
2022/11/18 12:09:30;;;;;;;1999.90;999.90;;;15.10;99.90;;;;;;5058603;28;20017;-76
2022/11/18 12:12:37;;;;;;;1999.90;999.90;;;15.00;99.90;;;;;;5061979;28;20028;-76
2022/11/18 12:15:14;;;;;;;1999.90;999.90;;;15.10;99.90;;;;;;5090914;28;20387;-76
2022/11/18 12:18:08;;;;;;;1999.90;999.90;;;15.30;99.90;;;;;;5064160;28;20549;-75
2022/11/18 12:20:43;;;;;;;1999.90;999.90;;;15.40;99.90;;;;;;5048656;28;20032;-76
2022/11/18 12:23:15;;;;;;;1999.90;999.90;;;15.70;99.90;;;;;;5087903;28;20123;-76
2022/11/18 12:25:46;;;;;;;1999.90;999.90;;;16.00;99.90;;;;;;5090788;28;20016;-76
2022/11/18 12:28:26;;;;;;;1999.90;999.90;;;16.10;99.90;;;;;;5081901;28;20031;-79
2022/11/18 12:31:31;;;;;;;1999.90;999.90;;;16.00;99.90;;;;;;5070645;28;20082;-76
2022/11/18 12:34:03;;;;;;;1999.90;999.90;;;15.40;99.90;;;;;;4985756;28;20140;-76
2022/11/18 12:36:38;;;;;;;1999.90;999.90;;;14.40;99.90;;;;;;5003194;28;20412;-79
2022/11/18 12:39:22;;;;;;;1999.90;999.90;;;14.20;99.90;;;;;;4989985;28;20031;-79
2022/11/18 12:44:42;;;;;;;1999.90;999.90;;;14.60;99.90;;;;;;4994506;28;20079;-76
2022/11/18 12:47:09;;;;;;;1999.90;999.90;;;14.90;99.90;;;;;;4996701;28;20099;-76
2022/11/18 12:49:35;;;;;;;1999.90;999.90;;;15.00;99.90;;;;;;4999513;28;20043;-76
2022/11/18 12:52:03;;;;;;;1999.90;999.90;;;15.10;99.90;;;;;;5004097;28;20036;-81
2022/11/18 12:54:45;;;;;;;1999.90;999.90;;;15.00;99.90;;;;;;5012316;28;20370;-79
2022/11/18 12:57:16;;;;;;;1999.90;999.90;;;14.90;99.90;;;;;;4996137;28;20018;-75
2022/11/18 12:59:42;;;;;;;1999.90;999.90;;;14.60;99.90;;;;;;4992479;28;20034;-76
2022/11/18 13:02:10;;;;;;;1999.90;999.90;;;14.50;99.90;;;;;;4992174;28;20042;-80
2022/11/18 13:04:37;;;;;;;1999.90;999.90;;;14.40;99.90;;;;;;4989771;28;20069;-76
2022/11/18 13:08:11;;;;;;;1999.90;999.90;;;14.60;99.90;;;;;;5021139;28;20032;-81
2022/11/18 13:09:52;;;;;;;1999.90;999.90;;;15.00;99.90;;;;;;5077565;28;20029;-76
2022/11/18 13:12:18;;;;;;;1999.90;999.90;;;15.10;99.90;;;;;;5073269;28;20052;-77
2022/11/18 13:20:23;;;;;;;1999.90;999.90;;;15.30;99.90;;;;;;5073805;28;20039;-80
2022/11/18 13:25:38;;;;;;;1999.90;999.90;;;15.30;99.90;;;;;;5089364;28;20039;-77
2022/11/18 13:28:55;;;;;;;1999.90;999.90;;;15.50;99.90;;;;;;5071792;28;20021;-76
2022/11/18 13:31:45;;;;;;;1999.90;999.90;;;15.30;99.90;;;;;;5029048;28;20033;-80
2022/11/18 13:34:18;;;;;;;1999.90;999.90;;;15.00;99.90;;;;;;5093637;28;20074;-76
2022/11/18 13:36:44;;;;;;;;;;;15.30;99.90;;;;;;5075683;28;20056;-80
2022/11/18 13:39:25;;;;;;;1999.90;999.90;;;15.70;99.90;;;;;;5071613;28;20286;-77
2022/11/18 13:42:06;;;;;;;1999.90;999.90;;;15.50;99.90;;;;;;5059369;28;20086;-80
2022/11/18 13:44:34;;;;;;;1999.90;999.90;;;14.90;99.90;;;;;;5072858;28;20034;-80
2022/11/18 13:47:11;;;;;;;1999.90;999.90;;;14.80;99.90;;;;;;5078121;28;20043;-76